Vista del Lago, Puerto Rico
Current Conditions -  °F | °C
As of 4:56 PM on Monday 22 Dec 2014 (Local Time) from TJSJ Reporting Station
Scattered Clouds Scattered Clouds  
Wind Chill: 28°   Ceiling: Unl
Heat Index: 31°   Visibility: 10mi
Dew Point: 23°   Wind: 15mph
Humidity: 74%   Direction: 70°ENE
Pressure: 29.98"   Gusts: NA
Location:  18.4519°N, 66.1817°W
Report Text: TJSJ 222056Z 07013KT 10SM FEW032 SCT060 28/23 A2998 RMK AO2 SLP150 T02780228 55003
Loading
Personal Weather Stations






























Interactive Weather Map New forecast layout! Learn more

10-Day Weather Forecast

Advertisements
Track Severe Weather on mobile